createdAt,value
2023-05-14T00:00:28.624Z,14.51
2023-05-14T00:02:55.281Z,14.47
2023-05-14T00:05:22.380Z,14.46
2023-05-14T00:07:48.790Z,14.44
2023-05-14T00:10:15.205Z,14.42
2023-05-14T00:12:41.697Z,14.38
2023-05-14T00:15:08.703Z,14.35
2023-05-14T00:17:37.162Z,14.33
2023-05-14T00:20:07.122Z,14.29
2023-05-14T00:22:34.311Z,14.21
2023-05-14T00:25:00.900Z,14.21
2023-05-14T00:27:27.371Z,14.18
2023-05-14T00:29:53.828Z,14.17
2023-05-14T00:32:20.321Z,14.10
2023-05-14T00:34:46.791Z,14.07
2023-05-14T00:37:13.201Z,14.03
2023-05-14T00:39:39.699Z,13.99
2023-05-14T00:42:06.496Z,14.00
2023-05-14T00:44:32.981Z,13.96
2023-05-14T00:47:00.358Z,13.96
2023-05-14T00:49:28.543Z,13.95
2023-05-14T00:51:58.901Z,13.94
2023-05-14T00:54:26.215Z,13.89
2023-05-14T00:56:53.861Z,13.87
2023-05-14T00:59:20.311Z,13.86
2023-05-14T01:01:46.823Z,13.82
2023-05-14T01:04:13.500Z,13.74
2023-05-14T01:06:58.226Z,13.73
2023-05-14T01:09:48.976Z,13.70
2023-05-14T01:12:43.300Z,13.66
2023-05-14T01:15:15.351Z,13.65
2023-05-14T01:17:48.473Z,13.57
2023-05-14T01:20:15.547Z,13.54
2023-05-14T01:22:42.586Z,13.52
2023-05-14T01:25:09.391Z,13.52
2023-05-14T01:27:38.066Z,13.44
2023-05-14T01:30:21.966Z,13.43
2023-05-14T01:32:53.422Z,13.38
2023-05-14T01:35:24.124Z,13.38
2023-05-14T01:37:51.606Z,13.33
2023-05-14T01:40:18.713Z,13.31
2023-05-14T01:42:45.834Z,13.29
2023-05-14T01:45:12.366Z,13.20
2023-05-14T01:47:38.775Z,13.17
2023-05-14T01:50:05.781Z,13.15
2023-05-14T01:52:32.264Z,13.14
2023-05-14T01:54:59.970Z,13.12
2023-05-14T01:57:26.385Z,13.07
2023-05-14T01:59:52.815Z,13.03
2023-05-14T02:02:19.311Z,13.03
2023-05-14T02:04:45.732Z,12.96
2023-05-14T02:07:12.173Z,12.94
2023-05-14T02:09:38.673Z,12.94
2023-05-14T02:12:05.493Z,12.92
2023-05-14T02:14:32.009Z,12.90
2023-05-14T02:16:58.592Z,12.85
2023-05-14T02:19:25.148Z,12.81
2023-05-14T02:21:51.645Z,12.79
2023-05-14T02:24:18.053Z,12.78
2023-05-14T02:26:44.478Z,12.77
2023-05-14T02:29:11.518Z,12.76
2023-05-14T02:31:37.990Z,12.74
2023-05-14T02:34:06.420Z,12.69
2023-05-14T02:36:33.153Z,12.67
2023-05-14T02:39:01.012Z,12.64
2023-05-14T02:41:27.957Z,12.61
2023-05-14T02:43:54.827Z,12.58
2023-05-14T02:46:21.548Z,12.57
2023-05-14T02:48:48.007Z,12.56
2023-05-14T02:51:14.476Z,12.52
2023-05-14T02:53:40.968Z,12.51
2023-05-14T02:56:08.139Z,12.48
2023-05-14T02:58:34.565Z,12.46
2023-05-14T03:01:01.094Z,12.44
2023-05-14T03:03:29.490Z,12.42
2023-05-14T03:05:56.526Z,12.39
2023-05-14T03:08:23.024Z,12.36
2023-05-14T03:10:49.462Z,12.30
2023-05-14T03:13:20.642Z,12.30
2023-05-14T03:15:47.506Z,12.24
2023-05-14T03:18:15.086Z,12.20
2023-05-14T03:20:41.949Z,12.19
2023-05-14T03:23:08.390Z,12.19
2023-05-14T03:25:34.854Z,12.18
2023-05-14T03:28:01.321Z,12.16
2023-05-14T03:30:27.917Z,12.14
2023-05-14T03:32:54.477Z,12.13
2023-05-14T03:35:20.997Z,12.19
2023-05-14T03:37:47.466Z,12.18
2023-05-14T03:40:13.905Z,12.15
2023-05-14T03:42:40.351Z,12.13
2023-05-14T03:45:07.711Z,12.07
2023-05-14T03:47:34.159Z,12.09
2023-05-14T03:50:00.805Z,12.06
2023-05-14T03:52:27.246Z,12.06
2023-05-14T03:54:53.652Z,12.00
2023-05-14T03:57:20.114Z,11.99
2023-05-14T03:59:46.523Z,11.97
2023-05-14T04:02:12.987Z,11.96
2023-05-14T04:04:40.091Z,11.97
2023-05-14T04:07:06.618Z,11.96
2023-05-14T04:09:33.082Z,11.96
2023-05-14T04:11:59.523Z,11.97
2023-05-14T04:14:26.093Z,11.96
2023-05-14T04:16:52.556Z,11.96
2023-05-14T04:19:19.098Z,11.97
2023-05-14T04:21:45.614Z,11.96
2023-05-14T04:24:12.041Z,11.92
2023-05-14T04:26:38.441Z,11.92
2023-05-14T04:29:04.901Z,11.92
2023-05-14T04:31:31.697Z,11.94
2023-05-14T04:33:58.368Z,11.90
2023-05-14T04:36:24.833Z,11.93
2023-05-14T04:38:51.817Z,11.96
2023-05-14T04:41:18.387Z,11.97
2023-05-14T04:43:44.816Z,11.97
2023-05-14T04:46:11.642Z,11.99
2023-05-14T04:48:38.264Z,12.00
2023-05-14T04:51:06.964Z,11.99
2023-05-14T04:53:33.835Z,12.02
2023-05-14T04:56:00.282Z,12.05
2023-05-14T04:58:28.869Z,12.12
2023-05-14T05:00:55.372Z,12.21
2023-05-14T05:03:21.994Z,12.23
2023-05-14T05:05:48.502Z,12.29
2023-05-14T05:08:14.968Z,12.31
2023-05-14T05:10:41.411Z,12.33
2023-05-14T05:13:07.857Z,12.38
2023-05-14T05:15:34.290Z,12.40
2023-05-14T05:18:00.864Z,12.46
2023-05-14T05:20:28.281Z,12.52
2023-05-14T05:22:54.906Z,12.55
2023-05-14T05:25:21.561Z,12.62
2023-05-14T05:27:48.036Z,12.68
2023-05-14T05:30:14.504Z,12.71
2023-05-14T05:32:41.085Z,12.70
2023-05-14T05:35:07.891Z,12.79
2023-05-14T05:37:34.335Z,12.86
2023-05-14T05:40:00.824Z,12.89
2023-05-14T05:42:27.369Z,12.87
2023-05-14T05:44:53.866Z,12.86
2023-05-14T05:47:20.522Z,12.83
2023-05-14T05:49:47.041Z,12.79
2023-05-14T05:52:13.638Z,12.72
2023-05-14T05:54:40.051Z,12.71
2023-05-14T05:57:06.493Z,12.70
2023-05-14T05:59:33.068Z,12.70
2023-05-14T06:01:59.615Z,12.67
2023-05-14T06:04:26.072Z,12.69
2023-05-14T06:06:52.492Z,12.77
2023-05-14T06:09:18.948Z,12.80
2023-05-14T06:11:45.652Z,12.82
2023-05-14T06:14:12.140Z,12.93
2023-05-14T06:16:38.746Z,12.93
2023-05-14T06:19:05.305Z,13.00
2023-05-14T06:21:32.001Z,13.03
2023-05-14T06:23:58.445Z,13.10
2023-05-14T06:26:24.876Z,13.21
2023-05-14T06:28:51.361Z,13.30
2023-05-14T06:31:18.611Z,13.34
2023-05-14T06:33:45.278Z,13.39
2023-05-14T06:36:11.792Z,13.50
2023-05-14T06:38:38.353Z,13.66
2023-05-14T06:41:04.851Z,13.80
2023-05-14T06:43:31.347Z,13.80
2023-05-14T06:45:58.053Z,13.79
2023-05-14T06:48:24.634Z,13.78
2023-05-14T06:50:51.288Z,13.91
2023-05-14T06:53:18.009Z,14.02
2023-05-14T06:55:45.014Z,14.10
2023-05-14T06:58:11.481Z,14.24
2023-05-14T07:00:37.961Z,14.24
2023-05-14T07:03:04.464Z,14.32
2023-05-14T07:05:30.960Z,14.45
2023-05-14T07:07:57.592Z,14.60
2023-05-14T07:10:24.306Z,14.58
2023-05-14T07:12:50.949Z,14.71
2023-05-14T07:15:17.574Z,14.83
2023-05-14T07:17:44.074Z,14.82
2023-05-14T07:20:10.999Z,14.89
2023-05-14T07:22:37.428Z,14.92
2023-05-14T07:25:04.929Z,14.89
2023-05-14T07:27:31.368Z,14.96
2023-05-14T07:29:57.807Z,14.91
2023-05-14T07:32:25.416Z,14.97
2023-05-14T07:34:51.935Z,15.09
2023-05-14T07:37:18.950Z,15.19
2023-05-14T07:39:45.639Z,15.27
2023-05-14T07:42:19.396Z,15.31
2023-05-14T07:44:51.952Z,15.33
2023-05-14T07:47:18.429Z,15.50
2023-05-14T07:49:45.120Z,15.56
2023-05-14T07:52:11.569Z,15.66
2023-05-14T07:54:38.090Z,15.69
2023-05-14T07:57:04.937Z,15.73
2023-05-14T07:59:32.062Z,15.80
2023-05-14T08:01:58.624Z,15.93
2023-05-14T08:04:25.308Z,15.95
2023-05-14T08:06:51.892Z,15.90
2023-05-14T08:09:18.403Z,15.91
2023-05-14T08:11:44.821Z,15.94
2023-05-14T08:14:11.303Z,15.98
2023-05-14T08:16:38.689Z,16.00
2023-05-14T08:19:05.367Z,16.05
2023-05-14T08:21:32.762Z,16.07
2023-05-14T08:23:59.396Z,16.14
2023-05-14T08:26:26.207Z,16.32
2023-05-14T08:28:53.900Z,16.37
2023-05-14T08:31:20.493Z,16.45
2023-05-14T08:33:46.958Z,16.58
2023-05-14T08:36:13.900Z,16.71
2023-05-14T08:38:40.734Z,16.75
2023-05-14T08:41:08.388Z,16.73
2023-05-14T08:44:01.994Z,16.85
2023-05-14T08:46:30.534Z,16.98
2023-05-14T08:49:05.073Z,17.08
2023-05-14T08:51:31.701Z,17.09
2023-05-14T08:54:02.549Z,17.13
2023-05-14T08:56:32.826Z,17.25
2023-05-14T08:59:00.308Z,17.26
2023-05-14T09:01:27.206Z,17.30
2023-05-14T09:03:54.981Z,17.35
2023-05-14T09:06:22.666Z,17.42
2023-05-14T09:08:49.670Z,17.39
2023-05-14T09:11:16.095Z,17.35
2023-05-14T09:13:43.050Z,17.30
2023-05-14T09:16:09.553Z,17.31
2023-05-14T09:18:36.856Z,17.27
2023-05-14T09:21:03.649Z,17.31
2023-05-14T09:23:33.316Z,17.42
2023-05-14T09:26:04.490Z,17.54
2023-05-14T09:28:30.931Z,17.55
2023-05-14T09:30:57.463Z,17.60
2023-05-14T09:33:31.075Z,17.61
2023-05-14T09:36:01.869Z,17.66
2023-05-14T09:38:32.866Z,17.73
2023-05-14T09:41:00.710Z,17.91
2023-05-14T09:43:27.246Z,18.00
2023-05-14T09:45:53.682Z,18.16
2023-05-14T09:48:20.195Z,18.24
2023-05-14T09:50:47.121Z,18.19
2023-05-14T09:53:14.357Z,18.24
2023-05-14T09:55:42.014Z,18.28
2023-05-14T09:58:08.475Z,18.39
2023-05-14T10:00:35.585Z,18.45
2023-05-14T10:03:08.007Z,18.60
2023-05-14T10:05:40.995Z,18.71
2023-05-14T10:08:17.159Z,18.73
2023-05-14T10:10:43.630Z,18.71
2023-05-14T10:13:20.923Z,18.71
2023-05-14T10:15:51.129Z,18.72
2023-05-14T10:18:20.201Z,18.82
2023-05-14T10:20:53.697Z,18.94
2023-05-14T10:23:20.500Z,18.96
2023-05-14T10:25:47.056Z,18.92
2023-05-14T10:28:13.799Z,19.06
2023-05-14T10:30:50.403Z,19.12
2023-05-14T10:33:18.510Z,19.21
2023-05-14T10:35:57.711Z,19.39
2023-05-14T10:38:33.222Z,19.37
2023-05-14T10:41:01.980Z,19.23
2023-05-14T10:43:30.904Z,19.28
2023-05-14T10:45:59.796Z,19.33
2023-05-14T10:48:26.932Z,19.44
2023-05-14T10:50:55.228Z,19.51
2023-05-14T10:53:32.031Z,19.63
2023-05-14T10:56:01.697Z,19.65
2023-05-14T10:58:32.047Z,19.74
2023-05-14T11:01:02.361Z,19.67
2023-05-14T11:03:31.575Z,19.67
2023-05-14T11:06:02.930Z,19.67
2023-05-14T11:08:31.017Z,19.84
2023-05-14T11:10:57.497Z,19.90
2023-05-14T11:13:26.750Z,19.96
2023-05-14T11:15:53.893Z,20.07
2023-05-14T11:18:33.405Z,20.09
2023-05-14T11:21:01.175Z,20.20
2023-05-14T11:23:30.184Z,20.22
2023-05-14T11:25:56.827Z,20.29
2023-05-14T11:28:24.755Z,20.29
2023-05-14T11:30:52.223Z,20.42
2023-05-14T11:33:19.809Z,20.46
2023-05-14T11:35:47.189Z,20.57
2023-05-14T11:38:20.254Z,20.60
2023-05-14T11:40:54.353Z,20.61
2023-05-14T11:43:23.722Z,20.71
2023-05-14T11:45:54.403Z,20.68
2023-05-14T11:48:22.333Z,20.64
2023-05-14T11:50:51.005Z,20.61
2023-05-14T11:53:25.718Z,20.58
2023-05-14T11:55:54.754Z,20.52
2023-05-14T11:58:22.021Z,20.64
2023-05-14T12:00:52.921Z,20.67
2023-05-14T12:03:26.260Z,20.69
2023-05-14T12:06:00.376Z,20.80
2023-05-14T12:08:29.666Z,20.86
2023-05-14T12:10:57.970Z,20.91
2023-05-14T12:13:31.518Z,21.05
2023-05-14T12:16:00.767Z,21.03
2023-05-14T12:18:29.866Z,21.08
2023-05-14T12:21:02.264Z,21.18
2023-05-14T12:23:32.861Z,21.32
2023-05-14T12:26:07.176Z,21.26
2023-05-14T12:28:38.430Z,21.30
2023-05-14T12:31:06.053Z,21.43
2023-05-14T12:33:32.567Z,21.62
2023-05-14T12:36:07.390Z,21.60
2023-05-14T12:38:41.321Z,21.59
2023-05-14T12:41:07.839Z,21.57
2023-05-14T12:43:34.273Z,21.72
2023-05-14T12:46:00.696Z,21.69
2023-05-14T12:48:27.139Z,21.69
2023-05-14T12:50:53.598Z,21.70
2023-05-14T12:53:20.101Z,21.64
2023-05-14T12:55:46.693Z,21.71
2023-05-14T12:58:13.162Z,21.73
2023-05-14T13:00:39.767Z,21.72
2023-05-14T13:03:06.586Z,21.65
2023-05-14T13:05:34.880Z,21.73
2023-05-14T13:08:03.687Z,21.71
2023-05-14T13:10:30.286Z,21.73
2023-05-14T13:12:56.842Z,21.82
2023-05-14T13:15:23.470Z,21.85
2023-05-14T13:17:50.273Z,22.02
2023-05-14T13:20:18.298Z,22.10
2023-05-14T13:22:45.079Z,22.08
2023-05-14T13:25:11.702Z,22.07
2023-05-14T13:27:38.119Z,22.02
2023-05-14T13:30:07.216Z,22.01
2023-05-14T13:32:33.753Z,22.12
2023-05-14T13:35:00.278Z,22.17
2023-05-14T13:37:26.871Z,22.23
2023-05-14T13:39:53.473Z,22.27
2023-05-14T13:42:19.923Z,22.31
2023-05-14T13:44:46.376Z,22.26
2023-05-14T13:47:12.943Z,22.46
2023-05-14T13:49:40.661Z,22.49
2023-05-14T13:52:07.186Z,22.42
2023-05-14T13:54:33.672Z,22.44
2023-05-14T13:57:00.105Z,22.41
2023-05-14T13:59:27.779Z,22.30
2023-05-14T14:01:54.558Z,22.31
2023-05-14T14:04:22.149Z,22.34
2023-05-14T14:06:49.046Z,22.38
2023-05-14T14:09:15.456Z,22.45
2023-05-14T14:11:42.130Z,22.29
2023-05-14T14:14:08.707Z,22.23
2023-05-14T14:16:35.435Z,22.27
2023-05-14T14:19:01.962Z,22.40
2023-05-14T14:21:28.505Z,22.42
2023-05-14T14:23:54.962Z,22.43
2023-05-14T14:26:21.961Z,22.39
2023-05-14T14:28:48.380Z,22.36
2023-05-14T14:31:16.005Z,22.32
2023-05-14T14:33:43.033Z,22.28
2023-05-14T14:36:09.527Z,22.22
2023-05-14T14:38:35.966Z,22.24
2023-05-14T14:41:07.069Z,22.22
2023-05-14T14:43:38.280Z,22.21
2023-05-14T14:46:04.906Z,22.28
2023-05-14T14:48:41.236Z,22.33
2023-05-14T14:51:09.056Z,22.32
2023-05-14T14:53:36.346Z,22.39
2023-05-14T14:56:02.926Z,22.44
2023-05-14T14:58:31.898Z,22.45
2023-05-14T15:00:58.775Z,22.50
2023-05-14T15:03:25.894Z,22.40
2023-05-14T15:05:53.683Z,22.42
2023-05-14T15:08:20.888Z,22.43
2023-05-14T15:10:47.399Z,22.38
2023-05-14T15:13:13.986Z,22.39
2023-05-14T15:15:40.704Z,22.32
2023-05-14T15:18:07.196Z,22.27
2023-05-14T15:20:33.964Z,22.30
2023-05-14T15:23:00.486Z,22.41
2023-05-14T15:25:27.347Z,22.53
2023-05-14T15:27:53.825Z,22.52
2023-05-14T15:30:20.461Z,22.53
2023-05-14T15:32:47.097Z,22.42
2023-05-14T15:35:14.150Z,22.43
2023-05-14T15:37:42.597Z,22.31
2023-05-14T15:40:10.360Z,22.30
2023-05-14T15:42:46.946Z,22.25
2023-05-14T15:45:14.204Z,22.19
2023-05-14T15:47:41.739Z,22.16
2023-05-14T15:50:08.741Z,22.20
2023-05-14T15:52:36.478Z,22.30
2023-05-14T15:55:04.486Z,22.27
2023-05-14T15:57:31.699Z,22.15
2023-05-14T15:59:58.212Z,22.09
2023-05-14T16:02:24.803Z,21.97
2023-05-14T16:04:54.427Z,21.91
2023-05-14T16:07:20.871Z,21.88
2023-05-14T16:09:47.312Z,21.77
2023-05-14T16:12:14.368Z,21.70
2023-05-14T16:14:42.152Z,21.75
2023-05-14T16:17:09.126Z,21.79
2023-05-14T16:19:35.579Z,21.74
2023-05-14T16:22:02.368Z,21.83
2023-05-14T16:24:28.789Z,21.77
2023-05-14T16:26:56.046Z,21.67
2023-05-14T16:29:23.545Z,21.54
2023-05-14T16:31:50.054Z,21.52
2023-05-14T16:34:16.540Z,21.46
2023-05-14T16:36:43.291Z,21.47
2023-05-14T16:39:09.831Z,21.46
2023-05-14T16:41:36.311Z,21.38
2023-05-14T16:44:03.380Z,21.32
2023-05-14T16:46:31.260Z,21.12
2023-05-14T16:48:57.870Z,21.06
2023-05-14T16:51:24.386Z,21.05
2023-05-14T16:53:51.963Z,20.99
2023-05-14T16:56:18.927Z,20.97
2023-05-14T16:58:45.459Z,20.94
2023-05-14T17:01:12.005Z,20.94
2023-05-14T17:03:38.625Z,20.94
2023-05-14T17:06:06.007Z,20.85
2023-05-14T17:08:33.662Z,20.78
2023-05-14T17:11:00.331Z,20.74
2023-05-14T17:13:26.874Z,20.64
2023-05-14T17:15:53.442Z,20.64
2023-05-14T17:18:19.984Z,20.56
2023-05-14T17:20:46.444Z,20.43
2023-05-14T17:23:13.328Z,20.34
2023-05-14T17:25:39.819Z,20.22
2023-05-14T17:28:08.127Z,20.10
2023-05-14T17:30:34.582Z,19.99
2023-05-14T17:33:01.115Z,19.96
2023-05-14T17:35:27.879Z,19.90
2023-05-14T17:37:54.407Z,19.76
2023-05-14T17:40:21.656Z,19.64
2023-05-14T17:42:48.163Z,19.52
2023-05-14T17:45:15.496Z,19.45
2023-05-14T17:47:42.326Z,19.36
2023-05-14T17:50:09.101Z,19.31
2023-05-14T17:52:35.664Z,19.16
2023-05-14T17:55:02.131Z,19.02
2023-05-14T17:57:29.323Z,18.97
2023-05-14T17:59:55.796Z,18.99
2023-05-14T18:02:22.290Z,18.95
2023-05-14T18:04:48.808Z,18.93
2023-05-14T18:07:15.372Z,18.92
2023-05-14T18:09:41.873Z,18.82
2023-05-14T18:12:08.803Z,18.70
2023-05-14T18:14:35.258Z,18.61
2023-05-14T18:17:01.871Z,18.63
2023-05-14T18:19:28.381Z,18.65
2023-05-14T18:21:55.534Z,18.63
2023-05-14T18:24:22.296Z,18.61
2023-05-14T18:26:51.224Z,18.63
2023-05-14T18:29:17.663Z,18.60
2023-05-14T18:31:44.111Z,18.37
2023-05-14T18:34:10.658Z,18.29
2023-05-14T18:36:37.569Z,18.21
2023-05-14T18:39:04.058Z,18.13
2023-05-14T18:41:32.070Z,18.00
2023-05-14T18:43:58.527Z,17.90
2023-05-14T18:46:25.796Z,17.78
2023-05-14T18:48:52.270Z,17.76
2023-05-14T18:51:19.488Z,17.69
2023-05-14T18:53:45.953Z,17.61
2023-05-14T18:56:12.393Z,17.52
2023-05-14T18:58:38.901Z,17.50
2023-05-14T19:01:05.492Z,17.40
2023-05-14T19:03:32.045Z,17.34
2023-05-14T19:05:58.659Z,17.26
2023-05-14T19:08:25.196Z,17.26
2023-05-14T19:10:52.860Z,17.19
2023-05-14T19:13:20.108Z,17.16
2023-05-14T19:15:46.571Z,17.10
2023-05-14T19:18:13.868Z,17.03
2023-05-14T19:20:40.329Z,16.99
2023-05-14T19:23:06.735Z,16.93
2023-05-14T19:25:35.534Z,16.92
2023-05-14T19:28:03.621Z,16.81
2023-05-14T19:30:30.738Z,16.73
2023-05-14T19:32:57.270Z,16.62
2023-05-14T19:35:24.041Z,16.55
2023-05-14T19:37:50.711Z,16.48
2023-05-14T19:40:17.169Z,16.43
2023-05-14T19:42:43.593Z,16.31
2023-05-14T19:45:10.439Z,16.19
2023-05-14T19:47:37.230Z,16.13
2023-05-14T19:50:03.925Z,16.11
2023-05-14T19:52:30.316Z,16.13
2023-05-14T19:54:56.768Z,16.15
2023-05-14T19:57:23.305Z,16.07
2023-05-14T19:59:50.523Z,16.01
2023-05-14T20:02:18.456Z,16.02
2023-05-14T20:04:46.100Z,16.02
2023-05-14T20:07:13.984Z,15.99
2023-05-14T20:09:40.483Z,15.95
2023-05-14T20:12:07.432Z,15.89
2023-05-14T20:14:33.845Z,15.89
2023-05-14T20:17:00.433Z,15.87
2023-05-14T20:19:27.564Z,15.77
2023-05-14T20:21:57.835Z,15.77
2023-05-14T20:24:24.311Z,15.65
2023-05-14T20:26:50.804Z,15.56
2023-05-14T20:29:17.232Z,15.54
2023-05-14T20:31:43.700Z,15.54
2023-05-14T20:34:12.519Z,15.54
2023-05-14T20:36:38.991Z,15.52
2023-05-14T20:39:06.292Z,15.43
2023-05-14T20:41:32.734Z,15.43
2023-05-14T20:43:59.967Z,15.39
2023-05-14T20:46:26.531Z,15.39
2023-05-14T20:48:57.381Z,15.39
2023-05-14T20:51:23.778Z,15.34
2023-05-14T20:53:50.196Z,15.35
2023-05-14T20:56:16.629Z,15.30
2023-05-14T20:58:43.058Z,15.24
2023-05-14T21:01:09.580Z,15.23
2023-05-14T21:03:36.408Z,15.26
2023-05-14T21:06:04.098Z,15.21
2023-05-14T21:08:32.980Z,15.20
2023-05-14T21:10:59.452Z,15.17
2023-05-14T21:13:25.955Z,15.17
2023-05-14T21:15:52.489Z,15.19
2023-05-14T21:18:19.000Z,15.16
2023-05-14T21:20:45.534Z,15.11
2023-05-14T21:23:12.730Z,15.06
2023-05-14T21:25:39.249Z,15.03
2023-05-14T21:28:05.671Z,14.96
2023-05-14T21:30:32.215Z,14.94
2023-05-14T21:32:58.786Z,14.87
2023-05-14T21:35:25.603Z,14.81
2023-05-14T21:37:52.280Z,14.81
2023-05-14T21:40:18.773Z,14.74
2023-05-14T21:42:45.335Z,14.69
2023-05-14T21:45:11.776Z,14.66
2023-05-14T21:47:38.669Z,14.65
2023-05-14T21:50:05.959Z,14.65
2023-05-14T21:52:32.443Z,14.64
2023-05-14T21:54:58.865Z,14.57
2023-05-14T21:57:28.189Z,14.53
2023-05-14T21:59:55.155Z,14.46
2023-05-14T22:02:21.690Z,14.45
2023-05-14T22:04:48.265Z,14.39
2023-05-14T22:07:14.701Z,14.36
2023-05-14T22:09:41.512Z,14.32
2023-05-14T22:12:08.937Z,14.25
2023-05-14T22:14:35.407Z,14.28
2023-05-14T22:17:01.944Z,14.28
2023-05-14T22:19:28.571Z,14.28
2023-05-14T22:21:55.079Z,14.25
2023-05-14T22:24:21.718Z,14.26
2023-05-14T22:26:48.175Z,14.26
2023-05-14T22:29:14.595Z,14.23
2023-05-14T22:31:41.254Z,14.21
2023-05-14T22:34:08.085Z,14.15
2023-05-14T22:36:34.674Z,14.12
2023-05-14T22:39:01.154Z,14.12
2023-05-14T22:41:27.756Z,14.07
2023-05-14T22:43:54.190Z,14.05
2023-05-14T22:46:21.129Z,14.00
2023-05-14T22:48:49.161Z,13.98
2023-05-14T22:51:16.282Z,13.96
2023-05-14T22:53:42.708Z,13.89
2023-05-14T22:56:09.177Z,13.84
2023-05-14T22:58:35.707Z,13.80
2023-05-14T23:01:03.798Z,13.80
2023-05-14T23:03:30.460Z,13.82
2023-05-14T23:05:56.898Z,13.83
2023-05-14T23:08:23.337Z,13.83
2023-05-14T23:10:49.780Z,13.79
2023-05-14T23:13:17.079Z,13.73
2023-05-14T23:15:44.054Z,13.71
2023-05-14T23:18:10.847Z,13.65
2023-05-14T23:20:37.451Z,13.62
2023-05-14T23:23:03.916Z,13.59
2023-05-14T23:25:31.962Z,13.61
2023-05-14T23:27:58.494Z,13.60
2023-05-14T23:30:24.946Z,13.60
2023-05-14T23:32:51.537Z,13.59
2023-05-14T23:35:18.164Z,13.55
2023-05-14T23:37:47.234Z,13.52
2023-05-14T23:40:14.205Z,13.55
2023-05-14T23:42:40.694Z,13.55
2023-05-14T23:45:07.777Z,13.56
2023-05-14T23:47:34.612Z,13.56
2023-05-14T23:50:01.167Z,13.55
2023-05-14T23:52:27.612Z,13.55
2023-05-14T23:54:54.218Z,13.53
2023-05-14T23:57:20.966Z,13.51
2023-05-14T23:59:47.454Z,13.50
